CCA1841 ZSPD-ZUCK
Flight info
| Callsign | CCA1841 |
|---|---|
| Flight time | N/A |
| Altitude | 37000 |
| Route | POMOK G330 UNTAN G345 OLRIS R343 MADUK W51 LEGIV W164 ADGOL W50 XSH W80 IRPOG |
| Aircraft | B772/H-HSDE2E3FGHIJ5LORVWXY/LB1D1 |
Departure
| Time | 2026-05-04 13:24 |
|---|---|
| Airport | Shanghai Pudong International Airport (ZSPD) |
Arrival
| Time | N/A |
|---|---|
| Airport | Chongqing Jiangbei International Airport (ZUCK) |
| Time | Latitude | Longitude | Altitude | Speed | Heading |
|---|---|---|---|---|---|
| 2026-05-04 12:51 | 31.14733 | 121.80965 | 28 ft | 0 kts | 298° |
| 2026-05-04 13:10 | 31.14730 | 121.80971 | 28 ft | 2 kts | 298° |
| 2026-05-04 13:11 | 31.14723 | 121.80986 | 28 ft | 2 kts | 298° |
| 2026-05-04 13:11 | 31.14716 | 121.81001 | 28 ft | 2 kts | 298° |
| 2026-05-04 13:11 | 31.14707 | 121.81016 | 28 ft | 2 kts | 326° |
| 2026-05-04 13:11 | 31.14693 | 121.81023 | 28 ft | 2 kts | 355° |
| 2026-05-04 13:12 | 31.14679 | 121.81021 | 28 ft | 2 kts | 22° |
| 2026-05-04 13:12 | 31.14667 | 121.81012 | 28 ft | 2 kts | 50° |
| 2026-05-04 13:12 | 31.14661 | 121.81001 | 28 ft | 0 kts | 71° |
| 2026-05-04 13:12 | 31.14659 | 121.80996 | 28 ft | 0 kts | 72° |
| 2026-05-04 13:14 | 31.14662 | 121.81007 | 28 ft | 0 kts | 72° |
| 2026-05-04 13:15 | 31.14663 | 121.81010 | 28 ft | 1 kts | 72° |
| 2026-05-04 13:15 | 31.14670 | 121.81044 | 28 ft | 4 kts | 84° |
| 2026-05-04 13:15 | 31.14646 | 121.81102 | 28 ft | 15 kts | 141° |
| 2026-05-04 13:15 | 31.14544 | 121.81153 | 28 ft | 14 kts | 161° |
| 2026-05-04 13:16 | 31.14449 | 121.81143 | 28 ft | 16 kts | 232° |
| 2026-05-04 13:16 | 31.14401 | 121.81016 | 28 ft | 18 kts | 252° |
| 2026-05-04 13:16 | 31.14360 | 121.80868 | 28 ft | 20 kts | 252° |
| 2026-05-04 13:16 | 31.14315 | 121.80707 | 28 ft | 21 kts | 252° |
| 2026-05-04 13:17 | 31.14266 | 121.80533 | 28 ft | 23 kts | 252° |
| 2026-05-04 13:17 | 31.14218 | 121.80359 | 29 ft | 22 kts | 252° |
| 2026-05-04 13:17 | 31.14167 | 121.80178 | 31 ft | 23 kts | 252° |
| 2026-05-04 13:17 | 31.14114 | 121.79992 | 30 ft | 25 kts | 252° |
| 2026-05-04 13:18 | 31.14069 | 121.79830 | 30 ft | 16 kts | 253° |
| 2026-05-04 13:18 | 31.14066 | 121.79818 | 29 ft | 0 kts | 252° |
| 2026-05-04 13:18 | 31.14053 | 121.79767 | 29 ft | 10 kts | 257° |
| 2026-05-04 13:18 | 31.14043 | 121.79694 | 29 ft | 16 kts | 259° |
| 2026-05-04 13:19 | 31.14160 | 121.79559 | 31 ft | 24 kts | 340° |
| 2026-05-04 13:19 | 31.14275 | 121.79516 | 31 ft | 24 kts | 342° |
| 2026-05-04 13:19 | 31.14537 | 121.79417 | 31 ft | 33 kts | 342° |
| 2026-05-04 13:19 | 31.14697 | 121.79356 | 32 ft | 23 kts | 342° |
| 2026-05-04 13:20 | 31.14876 | 121.79288 | 31 ft | 30 kts | 342° |
| 2026-05-04 13:20 | 31.15087 | 121.79209 | 28 ft | 20 kts | 342° |
| 2026-05-04 13:20 | 31.15248 | 121.79149 | 27 ft | 28 kts | 342° |
| 2026-05-04 13:20 | 31.15374 | 121.79102 | 25 ft | 17 kts | 342° |
| 2026-05-04 13:21 | 31.15506 | 121.79050 | 25 ft | 16 kts | 343° |
| 2026-05-04 13:21 | 31.15638 | 121.79002 | 28 ft | 22 kts | 342° |
| 2026-05-04 13:21 | 31.15798 | 121.78941 | 28 ft | 25 kts | 342° |
| 2026-05-04 13:21 | 31.15884 | 121.78909 | 28 ft | 11 kts | 342° |
| 2026-05-04 13:22 | 31.15958 | 121.78812 | 28 ft | 7 kts | 262° |
| 2026-05-04 13:22 | 31.15956 | 121.78805 | 28 ft | 0 kts | 257° |
| 2026-05-04 13:22 | 31.15956 | 121.78804 | 28 ft | 0 kts | 257° |
| 2026-05-04 13:22 | 31.15946 | 121.78760 | 28 ft | 10 kts | 253° |
| 2026-05-04 13:23 | 31.15880 | 121.78697 | 28 ft | 16 kts | 180° |
| 2026-05-04 13:23 | 31.15730 | 121.78748 | 28 ft | 43 kts | 162° |
| 2026-05-04 13:23 | 31.15388 | 121.78874 | 28 ft | 109 kts | 161° |
| 2026-05-04 13:23 | 31.14395 | 121.79252 | 129 ft | 180 kts | 162° |
| 2026-05-04 13:24 | 31.12697 | 121.79888 | 1642 ft | 194 kts | 159° |
| 2026-05-04 13:24 | 31.11493 | 121.80356 | 2600 ft | 191 kts | 165° |
| 2026-05-04 13:24 | 31.10112 | 121.80779 | 2980 ft | 221 kts | 165° |
| 2026-05-04 13:25 | 31.06824 | 121.81876 | 3007 ft | 255 kts | 164° |
| 2026-05-04 13:25 | 31.05125 | 121.82452 | 3006 ft | 257 kts | 164° |
| 2026-05-04 13:25 | 31.03386 | 121.83034 | 3002 ft | 257 kts | 167° |
| 2026-05-04 13:25 | 31.01614 | 121.83130 | 2997 ft | 258 kts | 191° |
| 2026-05-04 13:26 | 30.99936 | 121.82274 | 3625 ft | 272 kts | 218° |
| 2026-05-04 13:26 | 30.98749 | 121.80656 | 4805 ft | 264 kts | 243° |
| 2026-05-04 13:26 | 30.98249 | 121.79361 | 5429 ft | 265 kts | 251° |
| 2026-05-04 13:26 | 30.97447 | 121.76666 | 6668 ft | 269 kts | 255° |
| 2026-05-04 13:27 | 30.96877 | 121.74601 | 7577 ft | 272 kts | 255° |
| 2026-05-04 13:27 | 30.96373 | 121.72468 | 8397 ft | 276 kts | 266° |